Time;durP1;ratioP1;P1;durP2;ratioP2;P2;SDS_P1;SDS_P2;PMS_P1;PMS_P2;Temp;Humidity;BMP_temperature;BMP_pressure;BME280_temperature;BME280_humidity;BME280_pressure;Samples;Min_cycle;Max_cycle;Signal;HPM_P1;HPM_P2
2023/07/04 00:01:10;;;;;;;6.40;1.50;;;;;;;-146.27;83.56;82325.94;5076915;28;20107;-68
2023/07/04 00:03:37;;;;;;;11.27;1.63;;;;;;;-146.27;85.48;82408.28;5074177;28;20052;-68
2023/07/04 00:06:05;;;;;;;13.00;2.53;;;;;;;-146.27;87.70;82464.53;5070334;28;20362;-68
2023/07/04 00:08:33;;;;;;;10.02;1.90;;;;;;;-146.27;88.89;82532.84;5070105;28;20092;-68
2023/07/04 00:10:59;;;;;;;9.73;1.70;;;;;;;-146.27;91.42;82665.44;5057982;28;20087;-67
2023/07/04 00:13:27;;;;;;;7.75;2.28;;;;;;;-146.27;92.96;82619.22;5069242;28;20082;-67
2023/07/04 00:15:53;;;;;;;5.82;1.90;;;;;;;-146.27;94.87;82689.53;5056089;28;20104;-68
2023/07/04 00:18:21;;;;;;;11.50;1.80;;;;;;;-146.27;95.36;82747.78;5067288;28;20036;-67
2023/07/04 00:21:03;;;;;;;8.25;1.90;;;;;;;-146.27;96.03;82761.84;5068201;28;20452;-67
2023/07/04 00:23:35;;;;;;;6.93;1.73;;;;;;;-146.27;96.87;82745.78;5062820;28;20025;-67
2023/07/04 00:26:04;;;;;;;11.80;1.98;;;;;;;-146.27;97.31;82759.84;5070884;28;20032;-67
2023/07/04 00:28:33;;;;;;;9.85;2.38;;;;;;;-146.27;98.24;82806.06;5077646;28;20028;-67
2023/07/04 00:30:59;;;;;;;6.40;1.42;;;;;;;-146.27;98.20;82824.13;5074435;28;20498;-67
2023/07/04 00:33:30;;;;;;;8.48;2.00;;;;;;;-146.27;98.16;82802.03;5067355;28;20024;-67
2023/07/04 00:36:00;;;;;;;11.10;2.22;;;;;;;-146.27;98.17;82812.09;5083386;28;20032;-67
2023/07/04 00:38:26;;;;;;;7.90;2.15;;;;;;;-146.27;98.21;82826.16;5058434;28;20024;-68
2023/07/04 00:40:52;;;;;;;7.03;1.88;;;;;;;-146.27;97.72;82890.44;5079106;28;20099;-68
2023/07/04 00:43:17;;;;;;;11.32;2.03;;;;;;;-146.27;97.69;82850.25;5058546;28;20108;-67
2023/07/04 00:45:43;;;;;;;7.43;1.40;;;;;;;-146.27;97.81;82826.16;5068714;28;20557;-67
2023/07/04 00:48:13;;;;;;;11.85;2.53;;;;;;;-146.27;97.50;82810.06;5068453;28;20032;-68
2023/07/04 00:50:43;;;;;;;6.63;1.83;;;;;;;-146.27;97.68;82806.06;5073202;28;20028;-67
2023/07/04 00:53:11;;;;;;;6.38;1.40;;;;;;;-146.27;97.54;82838.19;5070638;28;20189;-66
2023/07/04 00:55:40;;;;;;;6.32;1.63;;;;;;;-146.27;97.64;82820.13;5076418;28;20028;-66
2023/07/04 00:58:06;;;;;;;13.73;1.75;;;;;;;-146.27;97.19;82777.94;5069546;28;20035;-68
2023/07/04 01:00:36;;;;;;;6.05;1.73;;;;;;;-146.27;97.04;82759.84;5067680;28;20032;-66
2023/07/04 01:03:10;;;;;;;12.68;3.10;;;;;;;-146.27;96.82;82755.84;5070856;28;20131;-67
2023/07/04 01:05:54;;;;;;;12.75;1.80;;;;;;;-146.27;96.26;82769.91;5063591;28;20102;-67
2023/07/04 01:08:25;;;;;;;8.57;1.73;;;;;;;-146.27;96.92;82729.72;5060475;28;20029;-67
2023/07/04 01:10:52;;;;;;;10.50;1.88;;;;;;;-146.27;97.79;82753.81;5081789;28;20484;-67
2023/07/04 01:13:34;;;;;;;17.10;2.67;;;;;;;-146.27;97.11;82733.72;5072061;28;20024;-68
2023/07/04 01:16:11;;;;;;;10.57;1.90;;;;;;;-146.27;96.67;82727.72;5069734;28;20502;-68
2023/07/04 01:18:42;;;;;;;8.57;1.90;;;;;;;-146.27;96.75;82745.78;5075168;28;20434;-67
2023/07/04 01:21:09;;;;;;;9.07;1.88;;;;;;;-146.27;96.19;82725.69;5053434;28;20098;-67
2023/07/04 01:23:58;;;;;;;9.05;3.53;;;;;;;-146.27;95.50;82721.69;5067211;28;20495;-67
2023/07/04 01:26:34;;;;;;;10.07;2.00;;;;;;;-146.27;95.20;82753.81;5072217;28;20024;-67
2023/07/04 01:29:03;;;;;;;5.78;1.63;;;;;;;-146.27;93.95;82721.69;5079922;28;20032;-68
2023/07/04 01:31:30;;;;;;;12.88;1.52;;;;;;;-146.27;92.77;82739.75;5070991;28;20434;-68
2023/07/04 01:33:57;;;;;;;10.10;1.10;;;;;;;-146.27;91.96;82737.75;5068716;28;20019;-68
2023/07/04 01:36:25;;;;;;;5.47;2.38;;;;;;;-146.27;93.11;82753.81;5072190;28;20111;-67
2023/07/04 01:38:52;;;;;;;4.18;1.30;;;;;;;-146.27;92.58;82751.81;5065359;28;20448;-68
2023/07/04 01:41:19;;;;;;;6.38;1.23;;;;;;;-146.27;90.32;82769.91;5085557;28;20357;-67
2023/07/04 01:43:52;;;;;;;4.30;1.02;;;;;;;-146.27;91.31;82737.75;5064809;28;20039;-67
2023/07/04 01:46:18;;;;;;;8.00;1.40;;;;;;;-146.27;91.55;82757.84;5076035;28;20028;-66
2023/07/04 01:48:44;;;;;;;4.38;1.05;;;;;;;-146.27;90.20;82755.84;5064034;28;20037;-67
2023/07/04 01:51:09;;;;;;;9.73;1.08;;;;;;;-146.27;87.18;82775.91;5067563;28;20097;-67
2023/07/04 01:53:35;;;;;;;4.15;0.80;;;;;;;-146.27;85.38;82741.78;5077815;28;20071;-66
2023/07/04 01:56:00;;;;;;;4.60;1.27;;;;;;;-146.27;85.32;82765.88;5064067;28;20036;-66
2023/07/04 01:58:25;;;;;;;8.73;1.42;;;;;;;-146.27;84.05;82703.59;5078070;28;20556;-67
2023/07/04 02:00:51;;;;;;;5.38;1.65;;;;;;;-146.27;84.24;82721.69;5066500;28;20023;-69
2023/07/04 02:03:16;;;;;;;6.53;1.10;;;;;;;-146.27;84.30;82705.59;5059797;28;20020;-69
2023/07/04 02:05:42;;;;;;;5.03;1.00;;;;;;;-146.27;83.30;82699.59;5053161;28;20427;-68
2023/07/04 02:08:08;;;;;;;5.60;1.20;;;;;;;-146.27;82.20;82707.63;5078312;28;20086;-68
2023/07/04 02:10:33;;;;;;;4.63;1.13;;;;;;;-146.27;83.04;82695.56;5064208;28;20044;-68
2023/07/04 02:12:59;;;;;;;11.00;0.90;;;;;;;-146.27;82.02;82649.34;5064980;28;20024;-68
2023/07/04 02:15:24;;;;;;;11.38;1.48;;;;;;;-146.27;81.10;82669.44;5066423;28;20070;-68
2023/07/04 02:17:51;;;;;;;4.30;1.33;;;;;;;-146.27;80.96;82661.41;5066450;28;20031;-68
2023/07/04 02:20:16;;;;;;;2.53;0.80;;;;;;;-146.27;79.82;82685.50;5069735;28;20037;-68
2023/07/04 02:22:43;;;;;;;4.78;0.80;;;;;;;-146.27;79.88;82631.28;5063631;28;20024;-68
2023/07/04 02:25:09;;;;;;;8.25;1.10;;;;;;;-146.27;79.00;82649.34;5067145;28;20333;-68
2023/07/04 02:27:35;;;;;;;8.43;1.30;;;;;;;-146.27;79.13;82625.25;5081099;28;20039;-69
2023/07/04 02:30:00;;;;;;;5.70;1.17;;;;;;;-146.27;79.09;82629.28;5067014;28;20020;-68
2023/07/04 02:32:25;;;;;;;3.83;1.13;;;;;;;-146.27;78.59;82609.19;5067244;28;20403;-68
2023/07/04 02:34:51;;;;;;;9.43;1.63;;;;;;;-146.27;79.20;82595.13;5074468;28;20098;-68
2023/07/04 02:37:16;;;;;;;2.95;1.10;;;;;;;-146.27;79.09;82669.44;5077287;28;20072;-68
2023/07/04 02:39:41;;;;;;;4.70;1.58;;;;;;;-146.27;79.16;82571.00;5063950;28;20024;-68
2023/07/04 02:42:07;;;;;;;4.05;1.13;;;;;;;-146.27;78.62;82619.22;5068969;28;20028;-68
2023/07/04 02:44:34;;;;;;;8.50;1.40;;;;;;;-146.27;78.34;82597.13;5064081;28;20036;-69
2023/07/04 02:46:59;;;;;;;3.95;1.08;;;;;;;-146.27;78.11;82564.97;5066711;28;20046;-68
2023/07/04 02:49:24;;;;;;;6.18;1.10;;;;;;;-146.27;78.43;82605.16;5075270;28;20414;-68
2023/07/04 02:51:50;;;;;;;4.80;1.20;;;;;;;-146.27;80.47;82601.16;5067776;28;20167;-68
2023/07/04 02:54:19;;;;;;;6.60;1.38;;;;;;;-146.27;79.33;82603.16;5090177;28;20042;-68
2023/07/04 02:56:44;;;;;;;9.98;1.73;;;;;;;-146.27;79.17;82522.78;5081066;28;20031;-68
2023/07/04 02:59:10;;;;;;;9.25;1.60;;;;;;;-146.27;79.80;82540.88;5083815;28;20372;-68
2023/07/04 03:01:35;;;;;;;4.40;1.35;;;;;;;-146.27;81.61;82536.84;5080230;28;20020;-68
2023/07/04 03:04:00;;;;;;;6.00;1.50;;;;;;;-146.27;82.76;82597.13;5077715;28;20163;-68
2023/07/04 03:06:27;;;;;;;5.78;1.48;;;;;;;-146.27;83.10;82605.16;5075150;28;20020;-68
2023/07/04 03:08:53;;;;;;;5.03;1.23;;;;;;;-146.27;82.68;82573.00;5078947;28;20028;-68
2023/07/04 03:11:19;;;;;;;12.90;1.50;;;;;;;-146.27;81.35;82613.19;5076145;28;20414;-68
2023/07/04 03:13:44;;;;;;;9.13;1.50;;;;;;;-146.27;79.44;82595.13;5075690;28;20472;-69
2023/07/04 03:16:09;;;;;;;8.60;1.65;;;;;;;-146.27;79.22;82621.22;5079086;28;20035;-68
2023/07/04 03:18:35;;;;;;;10.52;1.65;;;;;;;-146.27;76.05;82605.16;5069896;28;20534;-68
2023/07/04 03:21:01;;;;;;;5.18;1.55;;;;;;;-146.27;75.72;82556.94;5063167;28;20025;-68
2023/07/04 03:23:26;;;;;;;8.35;1.35;;;;;;;-146.27;72.82;82595.13;5065483;28;20025;-68
2023/07/04 03:25:51;;;;;;;4.00;1.25;;;;;;;-146.27;71.91;82573.00;5070903;28;20032;-68
2023/07/04 03:28:17;;;;;;;10.73;1.50;;;;;;;-146.27;71.86;82573.00;5070042;28;20028;-68
2023/07/04 03:30:42;;;;;;;11.35;1.60;;;;;;;-146.27;71.56;82548.91;5075782;28;20404;-68
2023/07/04 03:33:08;;;;;;;7.40;1.50;;;;;;;-146.27;70.40;82583.06;5057700;28;20477;-68
2023/07/04 03:35:37;;;;;;;7.88;1.40;;;;;;;-146.27;70.70;82530.84;5069506;28;20362;-68
2023/07/04 03:38:02;;;;;;;12.52;2.17;;;;;;;-146.27;70.95;82585.06;5076253;28;20025;-68
2023/07/04 03:40:27;;;;;;;9.27;1.52;;;;;;;-146.27;71.41;82516.78;5088535;28;20046;-67
2023/07/04 03:42:53;;;;;;;10.80;1.95;;;;;;;-146.27;70.74;82530.84;5075955;28;20019;-68
2023/07/04 03:45:18;;;;;;;7.05;1.85;;;;;;;-146.27;71.42;82518.78;5071745;28;20020;-68
2023/07/04 03:47:43;;;;;;;8.13;1.50;;;;;;;-146.27;70.89;82560.97;5071931;28;20098;-67
2023/07/04 03:50:09;;;;;;;17.13;2.03;;;;;;;-146.27;70.59;82569.00;5083746;28;20099;-68
2023/07/04 03:52:34;;;;;;;8.82;1.63;;;;;;;-146.27;70.97;82544.91;5088585;28;20060;-68
2023/07/04 03:55:00;;;;;;;13.95;2.00;;;;;;;-146.27;70.92;82589.09;5078345;28;20064;-68
2023/07/04 03:57:26;;;;;;;12.48;1.83;;;;;;;-146.27;75.91;82516.78;5060781;28;20056;-68
2023/07/04 03:59:51;;;;;;;8.52;1.73;;;;;;;-146.27;75.93;82552.94;5061600;28;20075;-68
2023/07/04 04:02:16;;;;;;;10.30;2.22;;;;;;;-146.27;78.57;82560.97;5067010;28;20035;-68
2023/07/04 04:04:42;;;;;;;10.68;1.83;;;;;;;-146.27;79.75;82569.00;5062633;28;20021;-68
2023/07/04 04:07:09;;;;;;;6.65;1.70;;;;;;;-146.27;79.47;82597.13;5068892;28;20024;-68
2023/07/04 04:09:35;;;;;;;14.02;2.05;;;;;;;-146.27;79.94;82597.13;5077540;28;20105;-68
2023/07/04 04:12:01;;;;;;;13.55;1.67;;;;;;;-146.27;78.31;82607.16;5061663;28;20029;-67
2023/07/04 04:14:29;;;;;;;8.95;1.85;;;;;;;-146.27;79.01;82587.09;5062158;28;20029;-68
2023/07/04 04:16:55;;;;;;;10.75;2.05;;;;;;;-146.27;79.88;82573.00;5062622;28;20099;-68
2023/07/04 04:19:21;;;;;;;11.45;1.50;;;;;;;-146.27;80.00;82587.09;5060627;28;20485;-68
2023/07/04 04:21:47;;;;;;;11.68;1.95;;;;;;;-146.27;81.57;82621.22;5074346;28;20165;-68
2023/07/04 04:24:12;;;;;;;8.75;1.70;;;;;;;-146.27;79.65;82625.25;5075096;28;20047;-68
2023/07/04 04:26:39;;;;;;;11.07;1.88;;;;;;;-146.27;80.19;82560.97;5086366;28;20475;-68
2023/07/04 04:29:05;;;;;;;8.45;1.70;;;;;;;-146.27;78.95;82585.06;5069631;28;20075;-68
2023/07/04 04:31:33;;;;;;;7.93;1.73;;;;;;;-146.27;81.49;82585.06;5064140;28;20028;-68
2023/07/04 04:33:59;;;;;;;13.02;2.45;;;;;;;-146.27;82.30;82564.97;5050115;28;20548;-68
2023/07/04 04:36:24;;;;;;;12.57;2.20;;;;;;;-146.27;82.31;82528.81;5053108;28;20115;-68
2023/07/04 04:38:50;;;;;;;13.90;1.85;;;;;;;-146.27;81.43;82567.00;5056150;28;20048;-68
2023/07/04 04:41:15;;;;;;;11.25;2.38;;;;;;;-146.27;81.47;82548.91;5051420;28;20511;-68
2023/07/04 04:43:41;;;;;;;8.85;2.05;;;;;;;-146.27;80.40;82540.88;5069457;28;20017;-68
2023/07/04 04:46:06;;;;;;;10.07;2.08;;;;;;;-146.27;79.28;82577.03;5064458;28;20035;-68
2023/07/04 04:48:35;;;;;;;11.52;1.70;;;;;;;-146.27;81.65;82544.91;5083822;28;20502;-68
2023/07/04 04:51:09;;;;;;;7.93;1.60;;;;;;;-146.27;81.99;82514.75;5084529;28;20477;-68
2023/07/04 04:53:36;;;;;;;12.20;2.75;;;;;;;-146.27;81.40;82522.78;5069343;28;20027;-68
2023/07/04 04:56:03;;;;;;;11.63;2.05;;;;;;;-146.27;81.21;82542.88;5066921;28;20107;-68
2023/07/04 04:58:28;;;;;;;11.68;1.73;;;;;;;-146.27;80.08;82528.81;5071749;28;20074;-68
2023/07/04 05:00:54;;;;;;;11.30;2.40;;;;;;;-146.27;78.98;82558.97;5061103;28;20040;-68
2023/07/04 05:03:19;;;;;;;7.97;2.08;;;;;;;-146.27;79.66;82508.72;5064205;28;20547;-67
2023/07/04 05:05:44;;;;;;;12.98;3.28;;;;;;;-146.27;79.40;82500.69;5060594;28;20047;-68
2023/07/04 05:08:10;;;;;;;15.13;2.15;;;;;;;-146.27;78.82;82492.66;5070425;28;20039;-68
2023/07/04 05:10:35;;;;;;;11.98;1.75;;;;;;;-146.27;78.43;82474.59;5065956;28;20040;-69
2023/07/04 05:13:01;;;;;;;8.68;1.98;;;;;;;-146.27;78.59;82456.50;5068876;28;20106;-68
2023/07/04 05:15:26;;;;;;;10.05;1.90;;;;;;;-146.27;77.90;82470.56;5064161;28;20048;-68
2023/07/04 05:17:51;;;;;;;18.13;2.42;;;;;;;-146.27;77.50;82418.34;5052883;28;20043;-68
2023/07/04 05:20:23;;;;;;;9.05;1.70;;;;;;;-146.27;76.98;82420.34;5065752;28;20501;-68
2023/07/04 05:22:49;;;;;;;11.30;1.58;;;;;;;-146.27;77.18;82416.31;5062063;28;20021;-67
2023/07/04 05:25:15;;;;;;;10.88;2.30;;;;;;;-146.27;77.07;82400.25;5061286;28;20519;-67
2023/07/04 05:27:41;;;;;;;14.60;2.63;;;;;;;-146.27;76.53;82396.25;5084380;28;20029;-68
2023/07/04 05:30:08;;;;;;;8.80;1.45;;;;;;;-146.27;76.18;82291.78;5055778;28;20025;-68
2023/07/04 05:32:33;;;;;;;14.05;1.95;;;;;;;-146.27;76.27;82400.25;5067116;28;20044;-67
2023/07/04 05:34:59;;;;;;;11.00;2.00;;;;;;;-146.27;76.53;82404.28;5069040;28;20028;-68
2023/07/04 05:37:25;;;;;;;10.90;1.67;;;;;;;-146.27;76.79;82368.13;5058682;28;20025;-67
2023/07/04 05:39:50;;;;;;;12.60;2.10;;;;;;;-146.27;77.23;82348.03;5058819;28;20021;-68
2023/07/04 05:42:16;;;;;;;15.35;1.83;;;;;;;-146.27;76.57;82400.25;5064368;28;20042;-66
2023/07/04 05:44:41;;;;;;;10.25;1.95;;;;;;;-146.27;76.95;82376.16;5080742;28;20032;-67
2023/07/04 05:47:06;;;;;;;14.15;1.83;;;;;;;-146.27;77.22;82400.25;5071456;28;20027;-68
2023/07/04 05:49:32;;;;;;;13.50;1.83;;;;;;;-146.27;77.12;82378.16;5083172;28;20028;-70
2023/07/04 05:51:57;;;;;;;8.95;2.38;;;;;;;-146.27;76.96;82342.00;5080408;28;20377;-67
2023/07/04 05:54:22;;;;;;;10.70;2.00;;;;;;;-146.27;76.28;82311.88;5062973;28;20025;-68
2023/07/04 05:56:53;;;;;;;9.63;2.13;;;;;;;-146.27;76.20;82267.69;5068000;28;20054;-67
2023/07/04 05:59:19;;;;;;;12.45;1.98;;;;;;;-146.27;75.21;82271.69;5066771;28;20131;-67
2023/07/04 06:01:45;;;;;;;8.40;1.50;;;;;;;-146.27;74.87;82279.72;5068033;28;20107;-69
2023/07/04 06:04:12;;;;;;;11.52;2.15;;;;;;;-146.27;74.64;82235.53;5068123;28;20039;-69
2023/07/04 06:06:41;;;;;;;9.02;2.00;;;;;;;-146.27;75.02;82195.38;5063959;28;20499;-70
2023/07/04 06:09:09;;;;;;;10.95;2.10;;;;;;;-146.27;74.30;82195.38;5066932;28;20449;-69
2023/07/04 06:11:38;;;;;;;15.38;2.10;;;;;;;-146.27;74.23;82207.41;5084699;28;20024;-69
2023/07/04 06:14:05;;;;;;;9.73;2.38;;;;;;;-146.27;73.86;82207.41;5071728;28;20046;-69
2023/07/04 06:16:31;;;;;;;8.65;1.98;;;;;;;-146.27;72.91;82207.41;5061204;28;20021;-69
2023/07/04 06:18:56;;;;;;;12.45;2.00;;;;;;;-146.27;72.28;82195.38;5070577;28;20020;-69
2023/07/04 06:21:24;;;;;;;13.75;2.35;;;;;;;-146.27;71.68;82159.22;5071037;28;20391;-70
2023/07/04 06:23:54;;;;;;;11.30;1.98;;;;;;;-146.27;71.90;82163.22;5072256;28;20512;-70
2023/07/04 06:26:19;;;;;;;10.30;1.73;;;;;;;-146.27;71.74;82171.25;5073234;28;20028;-70
2023/07/04 06:28:45;;;;;;;5.40;1.30;;;;;;;-146.27;72.54;82233.53;5072191;28;20495;-70
2023/07/04 06:31:13;;;;;;;13.13;1.67;;;;;;;-146.27;73.91;82183.31;5072551;28;20029;-70
2023/07/04 06:33:39;;;;;;;15.88;2.38;;;;;;;-146.27;74.89;82233.53;5070188;28;20662;-70
2023/07/04 06:36:08;;;;;;;9.77;1.95;;;;;;;-146.27;75.18;82229.50;5069624;28;20059;-71
2023/07/04 06:38:33;;;;;;;13.40;2.67;;;;;;;-146.27;75.45;82207.41;5072976;28;20021;-71
2023/07/04 06:41:10;;;;;;;15.80;2.53;;;;;;;-146.27;73.96;82223.47;5068939;28;20037;-70
2023/07/04 06:43:43;;;;;;;14.63;2.25;;;;;;;-146.27;74.41;82255.63;5052092;28;20053;-70
2023/07/04 06:46:13;;;;;;;14.43;2.47;;;;;;;-146.27;75.48;82271.69;5051937;28;20423;-69
2023/07/04 06:48:39;;;;;;;8.43;1.70;;;;;;;-146.27;75.45;82251.59;5067050;28;20079;-69
2023/07/04 06:51:08;;;;;;;20.58;5.03;;;;;;;-146.27;76.27;82263.66;5079502;28;20032;-68
2023/07/04 06:53:34;;;;;;;14.43;2.25;;;;;;;-146.27;75.90;82281.75;5069289;28;20485;-68
2023/07/04 06:56:26;;;;;;;13.90;2.53;;;;;;;-146.27;76.25;82313.88;5071465;28;20032;-68
2023/07/04 06:58:54;;;;;;;10.88;2.13;;;;;;;-146.27;76.26;82263.66;5071980;28;20120;-68
2023/07/04 07:01:26;;;;;;;12.88;2.15;;;;;;;-146.27;76.00;82219.47;5083182;28;20024;-67
2023/07/04 07:03:52;;;;;;;10.93;2.13;;;;;;;-146.27;72.92;82271.69;5072280;28;20020;-68
2023/07/04 07:06:17;;;;;;;9.80;2.25;;;;;;;-146.27;72.32;82179.28;5086046;28;20081;-68
2023/07/04 07:08:43;;;;;;;11.52;2.10;;;;;;;-146.27;71.59;82211.44;5092511;28;20034;-68
2023/07/04 07:11:16;;;;;;;21.33;2.30;;;;;;;-146.27;71.14;82153.19;5077409;28;20052;-67
2023/07/04 07:13:42;;;;;;;;;;;;;;;-146.27;70.77;82165.22;5063732;28;20037;-67
2023/07/04 07:16:09;;;;;;;8.10;1.30;;;;;;;-146.27;70.18;82147.16;5071143;28;20002;-68
2023/07/04 07:18:36;;;;;;;10.95;1.90;;;;;;;-146.27;70.08;82161.22;5071838;28;20098;-68
2023/07/04 07:21:03;;;;;;;10.10;1.73;;;;;;;-146.27;70.29;82078.84;5076218;28;20037;-68
2023/07/04 07:23:31;;;;;;;8.85;1.70;;;;;;;-146.27;69.89;82102.97;5066954;28;20021;-68
2023/07/04 07:25:58;;;;;;;12.93;1.90;;;;;;;-146.27;69.27;82058.78;5082867;28;20027;-68
2023/07/04 07:28:25;;;;;;;10.50;2.00;;;;;;;-146.27;68.85;82082.88;5083458;28;20075;-67
2023/07/04 07:31:04;;;;;;;10.85;2.13;;;;;;;-146.27;67.70;81994.50;5080300;28;20055;-67
2023/07/04 07:33:31;;;;;;;10.95;2.10;;;;;;;-146.27;66.01;81974.41;5062618;28;20465;-68
2023/07/04 07:35:58;;;;;;;9.40;1.90;;;;;;;-146.27;66.50;81924.19;5088586;28;20552;-67
2023/07/04 07:38:23;;;;;;;6.05;1.65;;;;;;;-146.27;63.76;81998.50;5070712;28;20411;-66
2023/07/04 07:40:50;;;;;;;11.18;2.35;;;;;;;-146.27;65.79;81958.34;5076607;28;20024;-68
2023/07/04 07:43:16;;;;;;;7.68;2.08;;;;;;;-146.27;64.76;81942.28;5069831;28;20579;-68
2023/07/04 07:45:41;;;;;;;11.25;2.17;;;;;;;-146.27;65.42;81944.28;5082946;28;20133;-68
2023/07/04 07:48:07;;;;;;;11.15;2.10;;;;;;;-146.27;66.04;81900.09;5075931;28;20028;-68
2023/07/04 07:50:32;;;;;;;17.33;2.13;;;;;;;-146.27;65.70;82010.56;5069586;28;20517;-68
2023/07/04 07:52:58;;;;;;;6.50;1.63;;;;;;;-146.27;66.12;82010.56;5071933;28;20021;-69
2023/07/04 07:55:23;;;;;;;9.70;2.20;;;;;;;-146.27;66.98;81974.41;5069384;28;20033;-68
2023/07/04 07:57:48;;;;;;;14.93;2.10;;;;;;;-146.27;65.40;81954.31;5071522;28;20384;-69
2023/07/04 08:00:14;;;;;;;8.50;1.77;;;;;;;-146.27;62.94;82018.59;5071206;28;20103;-69
2023/07/04 08:02:39;;;;;;;10.27;1.70;;;;;;;-146.27;62.47;81978.44;5062455;28;20380;-68
2023/07/04 08:05:05;;;;;;;10.88;1.83;;;;;;;-146.27;62.23;81924.19;5054585;28;20035;-69
2023/07/04 08:07:31;;;;;;;12.35;1.67;;;;;;;-146.27;62.01;81880.00;5070294;28;20028;-69
2023/07/04 08:09:57;;;;;;;13.50;2.33;;;;;;;-146.27;63.41;81825.78;5068906;28;20087;-68
2023/07/04 08:12:23;;;;;;;5.40;1.60;;;;;;;-146.27;60.64;81869.97;5071011;28;20062;-68
2023/07/04 08:14:49;;;;;;;14.73;2.45;;;;;;;-146.27;62.03;81779.59;5069032;28;20452;-68
2023/07/04 08:17:14;;;;;;;11.77;2.30;;;;;;;-146.27;62.69;81773.56;5070358;28;20024;-68
2023/07/04 08:19:40;;;;;;;14.77;2.03;;;;;;;-146.27;61.90;81829.78;5057923;28;20388;-68
2023/07/04 08:22:05;;;;;;;11.13;1.52;;;;;;;-146.27;64.40;81789.63;5050884;28;20032;-68
2023/07/04 08:24:30;;;;;;;8.68;2.10;;;;;;;-146.27;62.68;81755.47;5065804;28;20029;-68
2023/07/04 08:26:57;;;;;;;13.43;2.42;;;;;;;-146.27;61.46;81729.38;5052380;28;20020;-68
2023/07/04 08:29:23;;;;;;;12.15;2.05;;;;;;;-146.27;58.67;81767.53;5050417;28;20035;-68
2023/07/04 08:31:48;;;;;;;11.45;1.95;;;;;;;-146.27;58.83;81769.53;5050719;28;20024;-68
2023/07/04 08:34:14;;;;;;;9.13;1.50;;;;;;;-146.27;58.77;81793.66;5050650;28;20512;-68
2023/07/04 08:36:44;;;;;;;10.30;2.00;;;;;;;-146.27;59.32;81825.78;5059525;28;20088;-67
2023/07/04 08:39:09;;;;;;;7.72;1.70;;;;;;;-146.27;60.47;81855.91;5074882;28;20537;-67
2023/07/04 08:41:47;;;;;;;13.18;2.28;;;;;;;-146.27;61.48;81829.78;5062270;28;20021;-66
2023/07/04 08:44:18;;;;;;;8.35;2.00;;;;;;;-146.27;61.37;81829.78;5064533;28;20151;-67
2023/07/04 08:46:50;;;;;;;8.40;1.80;;;;;;;-146.27;61.82;81743.44;5070241;28;20028;-66
2023/07/04 08:49:30;;;;;;;7.10;1.70;;;;;;;-146.27;58.06;81825.78;5047018;28;20074;-67
2023/07/04 08:52:06;;;;;;;7.80;1.65;;;;;;;-146.27;55.00;81865.94;5069120;28;20028;-68
2023/07/04 08:54:36;;;;;;;12.50;3.03;;;;;;;-146.27;55.21;81908.13;5073217;28;20393;-67
2023/07/04 08:57:28;;;;;;;9.13;1.60;;;;;;;-146.27;52.89;81835.81;5063478;28;20029;-68
2023/07/04 09:00:16;;;;;;;14.32;2.67;;;;;;;-146.27;55.24;81723.34;5062547;28;20045;-69
2023/07/04 09:03:09;;;;;;;8.93;2.15;;;;;;;-146.27;55.34;81805.69;5067754;28;20471;-69
2023/07/04 09:05:59;;;;;;;8.25;1.67;;;;;;;-146.27;55.79;81781.59;5067628;28;20406;-70
2023/07/04 09:08:27;;;;;;;8.63;1.98;;;;;;;-146.27;56.87;81739.41;5064976;28;20021;-69
2023/07/04 09:10:59;;;;;;;18.83;2.40;;;;;;;-146.27;58.14;81785.59;5067375;28;20435;-69
2023/07/04 09:13:31;;;;;;;10.45;2.17;;;;;;;-146.27;57.99;81803.69;5049652;28;20117;-69
2023/07/04 09:16:03;;;;;;;10.13;2.45;;;;;;;-146.27;58.69;81729.38;5067982;28;20391;-68
2023/07/04 09:18:59;;;;;;;11.70;1.83;;;;;;;-146.27;58.09;81697.22;5070845;28;20032;-67
2023/07/04 09:21:25;;;;;;;12.30;3.40;;;;;;;-146.27;57.39;81645.00;5054387;28;20483;-69
2023/07/04 09:23:54;;;;;;;11.82;2.58;;;;;;;-146.27;56.11;81677.16;5052547;28;20029;-67
2023/07/04 09:26:26;;;;;;;8.63;1.77;;;;;;;-146.27;53.81;81665.09;5063449;28;20119;-70
2023/07/04 09:28:54;;;;;;;8.88;1.85;;;;;;;-146.27;54.68;81588.78;5061256;28;20028;-67
2023/07/04 09:31:25;;;;;;;9.80;2.25;;;;;;;-146.27;54.36;81592.78;5065643;28;20070;-69
2023/07/04 09:33:53;;;;;;;9.32;1.58;;;;;;;-146.27;54.97;81665.09;5068509;28;20020;-68
2023/07/04 09:36:21;;;;;;;12.15;1.83;;;;;;;-146.27;56.25;81649.03;5057069;28;20120;-68
2023/07/04 09:39:05;;;;;;;6.22;1.60;;;;;;;-146.27;54.94;81687.19;5067348;28;20031;-68
2023/07/04 09:41:36;;;;;;;;;;;;;;;-146.27;53.38;81665.09;5069320;28;20028;-68
2023/07/04 09:44:16;;;;;;;13.57;1.83;;;;;;;-146.27;55.19;81709.28;5069774;28;19947;-68
2023/07/04 09:46:53;;;;;;;7.10;1.70;;;;;;;-146.27;55.26;81687.19;5076796;28;20032;-70
2023/07/04 09:49:27;;;;;;;7.80;2.05;;;;;;;-146.27;56.63;81665.09;5065243;28;20036;-68
2023/07/04 09:52:04;;;;;;;9.95;1.92;;;;;;;-146.27;57.30;81643.00;5082189;28;20119;-71
2023/07/04 09:54:34;;;;;;;12.32;2.65;;;;;;;-146.27;55.17;81606.84;5102493;28;20492;-67
2023/07/04 09:57:23;;;;;;;16.40;2.03;;;;;;;-146.27;56.76;81632.97;5079111;28;20054;-67
2023/07/04 09:59:50;;;;;;;9.65;2.20;;;;;;;-146.27;57.69;81733.38;5077740;28;20020;-67
2023/07/04 10:02:24;;;;;;;9.13;2.15;;;;;;;-146.27;58.43;81785.59;5069755;28;20115;-69
2023/07/04 10:04:50;;;;;;;10.23;1.88;;;;;;;-146.27;58.90;81801.69;5079925;28;20037;-68
2023/07/04 10:07:18;;;;;;;16.98;2.20;;;;;;;-146.27;59.50;81725.34;5073466;28;20032;-67
2023/07/04 10:09:55;;;;;;;15.90;1.88;;;;;;;-146.27;59.22;81789.63;5071823;28;20765;-68
2023/07/04 10:12:23;;;;;;;8.77;2.38;;;;;;;-146.27;58.91;81735.41;5063643;28;20070;-68
2023/07/04 10:14:53;;;;;;;10.68;1.92;;;;;;;-146.27;59.56;81741.41;5080722;28;20020;-69
2023/07/04 10:17:29;;;;;;;14.35;2.35;;;;;;;-146.27;58.08;81737.41;5069469;28;20106;-68
2023/07/04 10:20:03;;;;;;;9.00;2.42;;;;;;;-146.27;56.71;81733.38;5069881;28;20032;-69
2023/07/04 10:22:41;;;;;;;11.75;2.03;;;;;;;-146.27;55.23;81717.31;5066582;28;20021;-69
2023/07/04 10:25:19;;;;;;;7.38;2.42;;;;;;;-146.27;53.84;81693.22;5081642;28;20102;-67
2023/07/04 10:27:53;;;;;;;12.20;2.15;;;;;;;-146.27;55.39;81801.69;5068192;28;20081;-68
2023/07/04 10:30:24;;;;;;;6.10;1.40;;;;;;;-146.27;55.33;81765.53;5063906;28;20163;-68
2023/07/04 10:32:55;;;;;;;7.75;2.67;;;;;;;-146.27;54.20;81797.66;5063088;28;20495;-68
2023/07/04 10:35:25;;;;;;;13.18;2.25;;;;;;;-146.27;55.35;81755.47;5071576;28;20040;-68
2023/07/04 10:38:13;;;;;;;9.95;1.92;;;;;;;-146.27;51.72;81729.38;5068809;28;20115;-68
2023/07/04 10:40:39;;;;;;;11.63;1.70;;;;;;;-146.27;50.48;81681.16;5073055;28;20027;-69
2023/07/04 10:43:12;;;;;;;10.75;2.35;;;;;;;-146.27;50.20;81677.16;5079028;28;20032;-70
2023/07/04 10:45:41;;;;;;;11.10;1.90;;;;;;;-146.27;51.43;81639.00;5073316;28;20040;-68
2023/07/04 10:48:12;;;;;;;8.93;2.13;;;;;;;-146.27;51.61;81564.69;5073094;28;20551;-69
2023/07/04 10:51:03;;;;;;;11.20;2.03;;;;;;;-146.27;50.83;81632.97;5061556;28;20024;-69
2023/07/04 10:53:29;;;;;;;12.50;2.28;;;;;;;-146.27;50.87;81604.84;5059218;28;20403;-69
2023/07/04 10:56:04;;;;;;;10.25;1.80;;;;;;;-146.27;51.16;81534.56;5073272;28;20024;-70
2023/07/04 10:58:36;;;;;;;7.43;1.52;;;;;;;-146.27;50.14;81554.63;5068214;28;20107;-69
2023/07/04 11:01:40;;;;;;;9.07;1.80;;;;;;;-146.27;49.63;81542.59;5061122;28;20619;-68
2023/07/04 11:04:23;;;;;;;6.93;1.90;;;;;;;-146.27;49.49;81494.38;5061121;28;20079;-69
2023/07/04 11:07:04;;;;;;;9.38;1.60;;;;;;;-146.27;49.18;81516.47;5069538;28;20052;-68
2023/07/04 11:09:41;;;;;;;4.10;1.52;;;;;;;-146.27;48.33;81480.31;5070226;28;20404;-68
2023/07/04 11:12:13;;;;;;;7.68;1.60;;;;;;;-146.27;47.74;81406.03;5068598;28;20036;-69
2023/07/04 11:14:44;;;;;;;15.57;1.90;;;;;;;-146.27;46.89;81424.09;5052905;28;20029;-70
2023/07/04 11:17:15;;;;;;;10.90;1.83;;;;;;;-146.27;47.66;81323.69;5054401;28;20089;-69
2023/07/04 11:20:01;;;;;;;6.55;1.38;;;;;;;-146.27;45.83;81321.66;5060539;28;20430;-69
2023/07/04 11:22:51;;;;;;;5.05;1.30;;;;;;;-146.27;48.15;81211.22;5066777;28;20019;-68